Wilson Clyde — 8PRV — position and weather

sailwx.info

Track history (hours):
 
Tides and Currents Weather Stations Pressure Air Temp Water Temp Dewpoint Dewpoint Depression Visibility Wind Speed Wind Dir Waves Ship Positions

Wilson Clyde

Last reported at 2015-May-06 05:32 UTC. Time now 2015-May-06 06:26 UTC.
Position N 54°48' W 005°29'.

Length 100 m; draft 5.9 m.

Type: Ship. MMSI: 314187000.

Date/timePositionNaut miles runAvg speedWind from/ knotsBaromVisibWave heightAir tempDewpointWater temp
2015-May-06 05:32N 54°48' W 005°29'8 8.4
2015-May-06 04:32N 54°55' W 005°38'21 7.0
2015-May-06 01:31N 55°13' W 005°57'7 7.2
2015-May-06 00:33N 55°19' W 006°04'8 8.5
2015-May-05 23:33N 55°23' W 006°17'8 7.8
2015-May-05 22:33N 55°30' W 006°24'9 8.5
2015-May-05 21:33N 55°37' W 006°33'1111.4
2015-May-05 20:33N 55°47' W 006°43'1111.1
2015-May-05 19:32N 55°56' W 006°54'125 9.4
2015-May-05 06:10N 57°60' W 006°15'610.6
2015-May-05 05:33N 58°04' W 006°07'1110.8
2015-May-05 04:34N 58°13' W 005°55'1111.1
2015-May-05 03:33N 58°21' W 005°41'1111.1
2015-May-05 02:33N 58°30' W 005°28'2711.5
2015-May-05 00:15N 58°51' W 004°55'1810.4
2015-May-04 22:29N 59°05' W 004°33'10 9.2
2015-May-04 21:25N 59°12' W 004°20'  
Track history (hours):
 
Tides and Currents Weather Stations Pressure Air Temp Water Temp Dewpoint Dewpoint Depression Visibility Wind Speed Wind Dir Waves Ship Positions

Wilson Clyde

Last reported at 2015-May-06 05:32 UTC. Time now 2015-May-06 06:26 UTC.
Position N 54°48' W 005°29'.

Length 100 m; draft 5.9 m.

Type: Ship. MMSI: 314187000.

Date/timePositionNaut miles runAvg speedWind from/ knotsBaromVisibWave heightAir tempDewpointWater temp
2015-May-06 05:32N 54°48' W 005°29'8 8.4
2015-May-06 04:32N 54°55' W 005°38'21 7.0
2015-May-06 01:31N 55°13' W 005°57'7 7.2
2015-May-06 00:33N 55°19' W 006°04'8 8.5
2015-May-05 23:33N 55°23' W 006°17'8 7.8
2015-May-05 22:33N 55°30' W 006°24'9 8.5
2015-May-05 21:33N 55°37' W 006°33'1111.4
2015-May-05 20:33N 55°47' W 006°43'1111.1
2015-May-05 19:32N 55°56' W 006°54'125 9.4
2015-May-05 06:10N 57°60' W 006°15'610.6
2015-May-05 05:33N 58°04' W 006°07'1110.8
2015-May-05 04:34N 58°13' W 005°55'1111.1
2015-May-05 03:33N 58°21' W 005°41'1111.1
2015-May-05 02:33N 58°30' W 005°28'2711.5
2015-May-05 00:15N 58°51' W 004°55'1810.4
2015-May-04 22:29N 59°05' W 004°33'10 9.2
2015-May-04 21:25N 59°12' W 004°20'  

Dump ship's entire track history